createdAt,value
2022-10-01T00:02:41.662Z,15.70
2022-10-01T00:07:46.011Z,15.72
2022-10-01T00:12:49.903Z,15.69
2022-10-01T00:17:54.392Z,15.69
2022-10-01T00:22:57.141Z,15.69
2022-10-01T00:28:00.046Z,15.70
2022-10-01T00:33:04.280Z,15.72
2022-10-01T00:38:06.945Z,15.68
2022-10-01T00:43:22.265Z,15.68
2022-10-01T02:14:25.173Z,15.40
2022-10-01T02:19:31.071Z,15.39
2022-10-01T02:24:38.478Z,15.37
2022-10-01T02:29:44.687Z,15.38
2022-10-01T02:34:49.311Z,15.30
2022-10-01T02:39:53.097Z,15.37
2022-10-01T02:44:58.210Z,15.31
2022-10-01T03:28:38.778Z,15.26
2022-10-01T03:33:41.475Z,15.24
2022-10-01T04:53:30.095Z,15.18
2022-10-01T04:58:32.780Z,15.17
2022-10-01T05:03:35.544Z,15.16
2022-10-01T05:08:39.824Z,15.16
2022-10-01T05:13:42.486Z,15.15
2022-10-01T05:18:45.286Z,15.17
2022-10-01T05:23:49.386Z,15.17
2022-10-01T06:08:19.419Z,15.17
2022-10-01T06:13:22.059Z,15.17
2022-10-01T06:18:24.839Z,15.20
2022-10-01T06:23:28.865Z,15.16
2022-10-01T06:28:31.587Z,15.20
2022-10-01T06:33:34.408Z,15.16
2022-10-01T06:38:38.413Z,15.17
2022-10-01T06:43:41.131Z,15.21
2022-10-01T06:48:43.806Z,15.18
2022-10-01T06:53:47.840Z,15.19
2022-10-01T06:58:50.511Z,15.18
2022-10-01T07:03:54.137Z,15.22
2022-10-01T07:08:58.405Z,15.21
2022-10-01T07:14:01.436Z,15.21
2022-10-01T07:19:04.152Z,15.21
2022-10-01T07:24:08.517Z,15.21
2022-10-01T07:29:11.322Z,15.21
2022-10-01T07:34:13.964Z,15.22
2022-10-01T07:39:18.102Z,15.22
2022-10-01T07:44:21.027Z,15.24
2022-10-01T07:49:25.003Z,15.28
2022-10-01T07:54:29.027Z,15.28
2022-10-01T08:38:10.969Z,15.36
2022-10-01T08:43:36.431Z,15.36
2022-10-01T08:48:54.776Z,15.42
2022-10-01T08:54:05.779Z,15.44
2022-10-01T08:59:16.326Z,15.46
2022-10-01T09:04:19.131Z,15.46
2022-10-01T09:09:33.914Z,15.49
2022-10-01T09:14:45.517Z,15.50
2022-10-01T09:20:04.422Z,15.51
2022-10-01T09:25:27.041Z,15.56
2022-10-01T09:30:31.155Z,15.56
2022-10-01T09:35:40.395Z,15.57
2022-10-01T09:51:48.679Z,15.58
2022-10-01T09:56:54.087Z,15.59
2022-10-01T10:01:59.024Z,15.62
2022-10-01T10:07:05.349Z,15.65
2022-10-01T10:12:11.067Z,15.71
2022-10-01T10:17:16.635Z,15.78
2022-10-01T10:22:24.835Z,15.89
2022-10-01T10:27:29.419Z,15.93
2022-10-01T10:32:32.514Z,15.95
2022-10-01T10:37:38.394Z,15.99
2022-10-01T10:42:48.474Z,16.02
2022-10-01T10:47:52.748Z,16.14
2022-10-01T10:52:57.267Z,16.22
2022-10-01T10:58:11.291Z,16.20
2022-10-01T11:03:15.712Z,16.28
2022-10-01T11:08:22.637Z,16.29
2022-10-01T11:13:35.975Z,16.34
2022-10-01T11:18:55.944Z,16.39
2022-10-01T11:24:21.176Z,16.46
2022-10-01T11:29:34.437Z,16.36
2022-10-01T11:34:50.622Z,16.40
2022-10-01T11:39:56.811Z,16.41
2022-10-01T11:45:04.617Z,16.41
2022-10-01T11:50:09.288Z,16.52
2022-10-01T11:55:46.945Z,16.47
2022-10-01T12:00:57.146Z,16.54
2022-10-01T12:06:00.384Z,16.53
2022-10-01T12:11:12.990Z,16.59
2022-10-01T12:16:19.753Z,16.63
2022-10-01T12:21:26.213Z,16.70
2022-10-01T12:26:38.518Z,16.68
2022-10-01T12:31:45.780Z,16.71
2022-10-01T12:36:57.704Z,16.77
2022-10-01T12:42:11.649Z,16.80
2022-10-01T12:47:28.414Z,16.85
2022-10-01T12:52:39.157Z,16.88
2022-10-01T12:57:48.151Z,16.89
2022-10-01T13:03:09.675Z,16.84
2022-10-01T13:08:25.216Z,16.87
2022-10-01T13:13:32.847Z,16.87
2022-10-01T13:18:54.492Z,16.89
2022-10-01T13:24:00.150Z,16.96
2022-10-01T13:29:16.074Z,16.98
2022-10-01T13:34:40.154Z,16.99
2022-10-01T13:39:43.583Z,16.98
2022-10-01T13:44:54.150Z,16.96
2022-10-01T13:49:59.762Z,16.97
2022-10-01T13:55:03.111Z,16.98
2022-10-01T14:00:22.514Z,17.03
2022-10-01T14:05:30.305Z,17.04
2022-10-01T14:10:57.679Z,17.04
2022-10-01T14:16:03.304Z,17.02
2022-10-01T14:21:14.924Z,17.02
2022-10-01T14:26:21.167Z,16.99
2022-10-01T14:31:32.718Z,16.99
2022-10-01T14:36:37.526Z,17.03
2022-10-01T14:41:40.445Z,17.02
2022-10-01T14:46:45.748Z,17.04
2022-10-01T14:51:54.095Z,17.01
2022-10-01T14:56:57.191Z,17.00
2022-10-01T15:02:02.990Z,16.97
2022-10-01T15:07:11.683Z,16.99
2022-10-01T15:12:15.354Z,16.92
2022-10-01T15:17:22.251Z,16.85
2022-10-01T15:22:28.439Z,16.79
2022-10-01T15:27:31.580Z,16.77
2022-10-01T15:32:35.632Z,16.78
2022-10-01T15:37:38.950Z,16.79
2022-10-01T15:42:46.448Z,16.75
2022-10-01T15:47:52.199Z,16.72
2022-10-01T15:53:02.104Z,16.68
2022-10-01T15:58:08.945Z,16.67
2022-10-01T16:03:23.288Z,16.71
2022-10-01T16:08:33.765Z,16.69
2022-10-01T16:13:39.154Z,16.68
2022-10-01T16:18:43.708Z,16.65
2022-10-01T16:23:49.427Z,16.65
2022-10-01T16:28:54.853Z,16.65
2022-10-01T16:33:58.926Z,16.64
2022-10-01T16:39:01.747Z,16.66
2022-10-01T16:44:06.053Z,16.63
2022-10-01T16:49:15.874Z,16.62
2022-10-01T16:54:22.964Z,16.59
2022-10-01T16:59:25.766Z,16.54
2022-10-01T17:04:33.941Z,16.53
2022-10-01T17:09:36.913Z,16.50
2022-10-01T17:14:39.535Z,16.48
2022-10-01T17:19:43.583Z,16.45
2022-10-01T17:24:46.226Z,16.45
2022-10-01T17:29:49.045Z,16.41
2022-10-01T17:34:54.328Z,16.38
2022-10-01T17:39:56.942Z,16.38
2022-10-01T17:44:59.650Z,16.36
2022-10-01T17:50:04.769Z,16.31
2022-10-01T17:55:08.434Z,16.32
2022-10-01T18:00:12.587Z,16.32
2022-10-01T18:05:17.197Z,16.31
2022-10-01T18:10:20.160Z,16.31
2022-10-01T18:15:24.084Z,16.30
2022-10-01T18:20:28.486Z,16.31
2022-10-01T18:25:31.203Z,16.27
2022-10-01T18:30:33.874Z,16.26
2022-10-01T18:35:37.868Z,16.27
2022-10-01T18:40:43.552Z,16.30
2022-10-01T18:45:57.711Z,16.35
2022-10-01T18:51:08.516Z,16.34
2022-10-01T18:56:21.880Z,16.31
2022-10-01T19:01:31.007Z,16.30
2022-10-01T19:06:42.198Z,16.28
2022-10-01T19:11:51.559Z,16.27
2022-10-01T19:17:00.870Z,16.26
2022-10-01T19:22:14.690Z,16.25
2022-10-01T19:27:27.602Z,16.25
2022-10-01T19:32:36.912Z,16.29
2022-10-01T19:37:44.989Z,16.29
2022-10-01T19:42:49.999Z,16.31
2022-10-01T19:47:58.387Z,16.31
2022-10-01T19:53:04.231Z,16.31
2022-10-01T19:58:15.681Z,16.34
2022-10-01T20:03:22.711Z,16.30
2022-10-01T20:08:35.635Z,16.31
2022-10-01T20:13:48.303Z,16.31
2022-10-01T20:18:57.968Z,16.32
2022-10-01T20:24:11.022Z,16.34
2022-10-01T20:29:26.565Z,16.33
2022-10-01T20:34:35.955Z,16.31
2022-10-01T20:39:43.038Z,16.33
2022-10-01T20:44:46.156Z,16.31
2022-10-01T20:49:53.674Z,16.31
2022-10-01T20:55:01.881Z,16.31
2022-10-01T21:00:08.294Z,16.28
2022-10-01T21:05:17.277Z,16.25
2022-10-01T21:10:27.545Z,16.24
2022-10-01T21:15:38.713Z,16.19
2022-10-01T21:20:48.988Z,16.17
2022-10-01T21:26:02.955Z,16.14
2022-10-01T21:31:18.750Z,16.08
2022-10-01T21:36:29.095Z,16.04
2022-10-01T21:41:48.275Z,16.03
2022-10-01T21:46:54.965Z,16.00
2022-10-01T21:52:05.549Z,15.99
2022-10-01T21:57:18.939Z,15.96
2022-10-01T22:02:34.735Z,15.95
2022-10-01T22:07:41.248Z,15.94
2022-10-01T22:12:48.781Z,15.93
2022-10-01T22:17:54.848Z,15.92
2022-10-01T22:23:01.256Z,15.93
2022-10-01T22:28:08.093Z,15.88
2022-10-01T22:33:13.580Z,15.90
2022-10-01T22:38:20.117Z,15.88
2022-10-01T22:43:24.161Z,15.88
2022-10-01T22:48:50.110Z,15.92
2022-10-01T22:54:04.571Z,15.91
2022-10-01T22:59:16.063Z,15.86
2022-10-01T23:04:28.505Z,15.90
2022-10-01T23:09:36.749Z,15.95
2022-10-01T23:15:03.216Z,15.93
2022-10-01T23:20:16.188Z,15.95
2022-10-01T23:25:23.928Z,15.99
2022-10-01T23:30:33.121Z,15.95
2022-10-01T23:35:43.878Z,15.94
2022-10-01T23:40:51.670Z,15.93
2022-10-01T23:45:58.230Z,15.94
2022-10-01T23:51:03.643Z,15.87
2022-10-01T23:56:28.782Z,15.83
